Terminal Aerodrome Forecast
Issued by NWS Charleston, WV

Current Version | Previous Version | Graphics & Text | Print | Product List | Glossary On
Versions: 1 2 3 4 5 6 7 8 9 10 11 12 13 14 15 16 17 18 19 20 21 22 23 24
385
FTUS41 KRLX 040528
TAFHTS
TAF
KHTS 040528Z 0406/0506 VRB03KT P6SM OVC130
     FM041400 09005KT P6SM OVC060
     FM050100 VRB03KT P6SM -SHRA OVC030
     FM050400 VRB03KT P6SM OVC025=

USA.gov is the U.S. government's official web portal to all federal, state and local government web resources and services.